Time;durP1;ratioP1;P1;durP2;ratioP2;P2;SDS_P1;SDS_P2;PMS_P1;PMS_P2;Temp;Humidity;BMP_temperature;BMP_pressure;BME280_temperature;BME280_humidity;BME280_pressure;Samples;Min_cycle;Max_cycle;Signal;HPM_P1;HPM_P2
2021/06/29 00:00:09;;;;;;;8.70;5.90;;;;;;;;;;5095641;28;20399;-60
2021/06/29 00:02:35;;;;;;;8.05;7.25;;;;;;;;;;5096336;28;20038;-60
2021/06/29 00:05:01;;;;;;;8.70;7.70;;;;;;;;;;5095500;28;20020;-60
2021/06/29 00:07:27;;;;;;;7.93;7.13;;;;;;;;;;5095694;28;20031;-60
2021/06/29 00:09:53;;;;;;;7.22;6.57;;;;;;;;;;4531213;28;15098317;-60
2021/06/29 00:12:19;;;;;;;7.72;7.03;;;;;;;;;;5097122;28;20100;-60
2021/06/29 00:14:46;;;;;;;10.60;7.95;;;;;;;;;;5096495;28;20115;-60
2021/06/29 00:17:12;;;;;;;7.40;6.43;;;;;;;;;;5097188;28;20036;-59
2021/06/29 00:19:38;;;;;;;8.05;7.25;;;;;;;;;;5096998;28;20031;-60
2021/06/29 00:22:06;;;;;;;9.80;7.25;;;;;;;;;;5096699;28;20028;-60
2021/06/29 00:24:32;;;;;;;7.47;6.65;;;;;;;;;;5096398;28;20016;-60
2021/06/29 00:26:58;;;;;;;7.15;6.43;;;;;;;;;;5096251;28;20080;-59
2021/06/29 00:29:24;;;;;;;6.65;5.95;;;;;;;;;;5096733;28;20040;-60
2021/06/29 00:31:50;;;;;;;7.25;6.55;;;;;;;;;;5096475;28;20024;-60
2021/06/29 00:34:16;;;;;;;7.00;6.40;;;;;;;;;;5096190;28;20028;-59
2021/06/29 00:36:42;;;;;;;7.72;6.97;;;;;;;;;;5096037;28;20119;-60
2021/06/29 00:39:08;;;;;;;6.78;5.95;;;;;;;;;;5094700;28;20046;-60
2021/06/29 00:41:34;;;;;;;6.75;6.15;;;;;;;;;;5096798;28;20114;-59
2021/06/29 00:44:00;;;;;;;6.10;5.50;;;;;;;;;;5094737;28;20063;-60
2021/06/29 00:46:26;;;;;;;7.43;6.18;;;;;;;;;;5095849;28;20106;-60
2021/06/29 00:48:52;;;;;;;7.25;6.28;;;;;;;;;;5094288;28;20028;-60
2021/06/29 00:51:20;;;;;;;7.03;6.32;;;;;;;;;;5095790;28;20024;-59
2021/06/29 00:53:46;;;;;;;9.60;6.15;;;;;;;;;;5096252;28;20032;-59
2021/06/29 00:56:15;;;;;;;6.68;5.97;;;;;;;;;;5094963;28;20362;-60
2021/06/29 00:58:45;;;;;;;6.80;5.78;;;;;;;;;;5095597;28;20386;-60
2021/06/29 01:01:11;;;;;;;6.10;5.47;;;;;;;;;;5096423;28;20020;-59
2021/06/29 01:03:37;;;;;;;6.65;5.88;;;;;;;;;;5094651;28;20038;-60
2021/06/29 01:06:05;;;;;;;6.18;5.57;;;;;;;;;;5096014;28;20020;-60
2021/06/29 01:08:32;;;;;;;4.82;4.32;;;;;;;;;;5095166;28;20028;-60
2021/06/29 01:10:58;;;;;;;6.15;5.05;;;;;;;;;;5095827;28;20484;-60
2021/06/29 01:13:35;;;;;;;5.72;4.97;;;;;;;;;;5095321;28;20024;-59
2021/06/29 01:16:03;;;;;;;5.05;4.55;;;;;;;;;;5094343;28;20141;-59
2021/06/29 01:18:32;;;;;;;5.40;4.90;;;;;;;;;;5095695;28;20514;-59
2021/06/29 01:20:58;;;;;;;5.82;4.63;;;;;;;;;;5094212;28;20024;-60
2021/06/29 01:23:25;;;;;;;6.15;4.82;;;;;;;;;;5095225;28;20106;-59
2021/06/29 01:26:06;;;;;;;5.20;4.70;;;;;;;;;;5095719;28;20442;-60
2021/06/29 01:28:57;;;;;;;8.25;5.22;;;;;;;;;;5095089;28;20036;-59
2021/06/29 01:31:23;;;;;;;;;;;;;;;;;;5095740;28;20028;-60
2021/06/29 01:33:49;;;;;;;5.05;4.15;;;;;;;;;;5095045;28;20391;-59
2021/06/29 01:36:19;;;;;;;4.65;4.25;;;;;;;;;;5095118;28;20107;-60
2021/06/29 01:38:46;;;;;;;4.07;3.67;;;;;;;;;;5095882;28;20039;-59
2021/06/29 01:41:13;;;;;;;4.05;3.42;;;;;;;;;;5094439;28;20028;-59
2021/06/29 01:43:52;;;;;;;3.95;3.55;;;;;;;;;;5094756;28;20020;-59
2021/06/29 01:46:19;;;;;;;4.57;3.78;;;;;;;;;;5095449;28;20016;-59
2021/06/29 01:48:47;;;;;;;3.42;3.13;;;;;;;;;;5094562;28;20020;-59
2021/06/29 01:51:13;;;;;;;4.20;3.72;;;;;;;;;;5094849;28;20016;-59
2021/06/29 01:53:39;;;;;;;4.50;3.55;;;;;;;;;;5094417;28;20230;-59
2021/06/29 01:56:07;;;;;;;5.10;3.92;;;;;;;;;;5093614;28;20027;-59
2021/06/29 01:58:34;;;;;;;7.50;4.07;;;;;;;;;;5094269;28;20480;-59
2021/06/29 02:01:00;;;;;;;4.65;4.15;;;;;;;;;;5093735;28;20145;-60
2021/06/29 02:03:26;;;;;;;4.88;4.47;;;;;;;;;;5094441;28;20016;-59
2021/06/29 02:05:53;;;;;;;4.95;4.45;;;;;;;;;;5094151;28;20122;-60
2021/06/29 02:08:19;;;;;;;4.85;4.00;;;;;;;;;;5094000;28;20539;-59
2021/06/29 02:10:45;;;;;;;4.10;3.60;;;;;;;;;;5094278;28;20040;-59
2021/06/29 02:13:11;;;;;;;7.78;4.03;;;;;;;;;;5094378;28;20462;-59
2021/06/29 02:15:37;;;;;;;4.25;3.90;;;;;;;;;;5094270;28;20419;-59
2021/06/29 02:18:04;;;;;;;6.57;4.75;;;;;;;;;;5094099;28;20166;-59
2021/06/29 02:20:30;;;;;;;8.45;4.53;;;;;;;;;;5094136;28;20077;-59
2021/06/29 02:22:56;;;;;;;5.85;5.05;;;;;;;;;;5093474;28;20020;-60
2021/06/29 02:25:22;;;;;;;5.93;4.55;;;;;;;;;;5092831;28;20099;-60
2021/06/29 02:27:48;;;;;;;4.63;3.80;;;;;;;;;;5094090;28;20034;-60
2021/06/29 02:30:15;;;;;;;4.50;3.63;;;;;;;;;;5094287;28;20036;-59
2021/06/29 02:32:41;;;;;;;4.65;3.92;;;;;;;;;;5094594;28;20370;-60
2021/06/29 02:35:07;;;;;;;6.90;4.35;;;;;;;;;;5094252;28;20026;-60
2021/06/29 02:37:33;;;;;;;6.15;4.28;;;;;;;;;;5092551;28;20024;-59
2021/06/29 02:39:59;;;;;;;11.85;4.38;;;;;;;;;;5093432;28;20126;-60
2021/06/29 02:42:25;;;;;;;3.80;3.22;;;;;;;;;;5094418;28;20042;-60
2021/06/29 02:44:51;;;;;;;5.18;3.90;;;;;;;;;;5093416;28;20036;-60
2021/06/29 02:47:17;;;;;;;3.63;3.05;;;;;;;;;;5093744;28;20039;-60
2021/06/29 02:49:43;;;;;;;5.70;3.67;;;;;;;;;;5094090;28;20028;-60
2021/06/29 02:52:12;;;;;;;5.35;3.50;;;;;;;;;;5093878;28;20507;-60
2021/06/29 02:54:38;;;;;;;4.25;3.42;;;;;;;;;;5093460;28;20028;-60
2021/06/29 02:57:04;;;;;;;4.30;3.72;;;;;;;;;;5093733;28;20498;-60
2021/06/29 02:59:33;;;;;;;3.92;3.33;;;;;;;;;;5093709;28;20034;-60
2021/06/29 03:01:59;;;;;;;4.13;3.35;;;;;;;;;;5095626;28;20028;-60
2021/06/29 03:04:25;;;;;;;4.03;3.70;;;;;;;;;;5098416;28;20393;-60
2021/06/29 03:06:51;;;;;;;5.60;4.43;;;;;;;;;;5097805;28;20039;-60
2021/06/29 03:09:17;;;;;;;4.35;3.85;;;;;;;;;;5098236;28;20059;-60
2021/06/29 03:11:43;;;;;;;4.72;3.75;;;;;;;;;;5096997;28;20024;-60
2021/06/29 03:14:09;;;;;;;4.95;4.45;;;;;;;;;;5097675;28;20024;-59
2021/06/29 03:16:35;;;;;;;4.88;4.32;;;;;;;;;;5097767;28;20370;-60
2021/06/29 03:19:06;;;;;;;5.95;4.18;;;;;;;;;;5097539;28;20039;-60
2021/06/29 03:21:32;;;;;;;4.25;3.60;;;;;;;;;;5097647;28;20362;-60
2021/06/29 03:23:58;;;;;;;4.38;3.42;;;;;;;;;;5097548;28;20031;-60
2021/06/29 03:26:24;;;;;;;3.20;2.90;;;;;;;;;;5097502;28;20032;-60
2021/06/29 03:28:50;;;;;;;7.95;3.75;;;;;;;;;;5097102;28;20028;-60
2021/06/29 03:31:17;;;;;;;6.90;3.70;;;;;;;;;;5097112;28;20036;-59
2021/06/29 03:33:43;;;;;;;5.40;3.53;;;;;;;;;;5096485;28;20022;-59
2021/06/29 03:36:09;;;;;;;3.83;3.38;;;;;;;;;;5097409;28;20060;-59
2021/06/29 03:38:35;;;;;;;4.00;3.58;;;;;;;;;;5095979;28;20040;-60
2021/06/29 03:41:01;;;;;;;4.70;3.70;;;;;;;;;;5097394;28;20024;-60
2021/06/29 03:43:27;;;;;;;4.90;4.47;;;;;;;;;;5095806;28;20024;-60
2021/06/29 03:45:53;;;;;;;5.75;4.35;;;;;;;;;;5097695;28;20393;-60
2021/06/29 03:48:19;;;;;;;5.07;4.35;;;;;;;;;;5097087;28;20040;-60
2021/06/29 03:50:45;;;;;;;5.85;4.30;;;;;;;;;;5097103;28;20081;-60
2021/06/29 03:53:11;;;;;;;6.13;3.85;;;;;;;;;;5097350;28;20020;-60
2021/06/29 03:55:37;;;;;;;7.47;4.97;;;;;;;;;;5097229;28;20024;-60
2021/06/29 03:58:03;;;;;;;3.97;3.58;;;;;;;;;;5095612;28;20134;-60
2021/06/29 04:00:29;;;;;;;6.43;4.00;;;;;;;;;;5096559;28;20465;-60
2021/06/29 04:02:55;;;;;;;3.80;3.45;;;;;;;;;;5096341;28;20077;-60
2021/06/29 04:05:21;;;;;;;4.40;4.00;;;;;;;;;;5096813;28;20454;-60
2021/06/29 04:07:47;;;;;;;4.80;4.03;;;;;;;;;;5095501;28;20373;-60
2021/06/29 04:10:14;;;;;;;4.70;4.18;;;;;;;;;;5097249;28;20454;-60
2021/06/29 04:12:40;;;;;;;5.57;4.03;;;;;;;;;;5096620;28;20343;-59
2021/06/29 04:15:07;;;;;;;5.00;3.92;;;;;;;;;;5096172;28;20502;-60
2021/06/29 04:17:33;;;;;;;7.38;4.50;;;;;;;;;;5096756;28;20032;-59
2021/06/29 04:19:59;;;;;;;8.68;4.38;;;;;;;;;;5097305;28;20032;-60
2021/06/29 04:22:25;;;;;;;9.95;3.47;;;;;;;;;;5096688;28;20020;-60
2021/06/29 04:24:51;;;;;;;4.93;4.38;;;;;;;;;;5096459;28;20347;-59
2021/06/29 04:27:21;;;;;;;4.65;4.18;;;;;;;;;;5096348;28;20032;-60
2021/06/29 04:29:47;;;;;;;4.30;3.90;;;;;;;;;;5096135;28;20111;-60
2021/06/29 04:32:13;;;;;;;5.18;4.53;;;;;;;;;;5096198;28;20055;-59
2021/06/29 04:34:42;;;;;;;5.22;3.45;;;;;;;;;;5096230;28;20024;-59
2021/06/29 04:37:08;;;;;;;4.97;4.38;;;;;;;;;;5096129;28;20028;-59
2021/06/29 04:39:38;;;;;;;5.05;4.25;;;;;;;;;;5096131;28;20032;-60
2021/06/29 04:42:04;;;;;;;6.38;4.80;;;;;;;;;;5096189;28;20039;-60
2021/06/29 04:44:30;;;;;;;5.43;4.88;;;;;;;;;;5096057;28;20026;-60
2021/06/29 04:46:57;;;;;;;10.20;5.10;;;;;;;;;;5095916;28;20028;-60
2021/06/29 04:49:27;;;;;;;5.80;5.25;;;;;;;;;;5095112;28;20051;-60
2021/06/29 04:51:53;;;;;;;4.57;4.18;;;;;;;;;;5096408;28;20458;-60
2021/06/29 04:54:19;;;;;;;5.55;4.80;;;;;;;;;;5095885;28;20047;-60
2021/06/29 04:56:45;;;;;;;5.68;4.43;;;;;;;;;;5095800;28;20028;-60
2021/06/29 04:59:11;;;;;;;5.75;4.90;;;;;;;;;;5095398;28;20093;-60
2021/06/29 05:01:37;;;;;;;6.00;5.40;;;;;;;;;;5094554;28;20106;-60
2021/06/29 05:04:03;;;;;;;6.05;5.30;;;;;;;;;;5095706;28;20024;-60
2021/06/29 05:06:29;;;;;;;5.55;4.68;;;;;;;;;;5094062;28;20082;-60
2021/06/29 05:08:55;;;;;;;5.28;4.78;;;;;;;;;;5095447;28;20150;-60
2021/06/29 05:11:21;;;;;;;6.28;4.72;;;;;;;;;;5095879;28;20039;-60
2021/06/29 05:13:50;;;;;;;4.38;3.70;;;;;;;;;;5095722;28;20069;-60
2021/06/29 05:16:17;;;;;;;4.75;4.35;;;;;;;;;;5094526;28;20063;-60
2021/06/29 05:18:43;;;;;;;5.15;3.83;;;;;;;;;;5095265;28;20055;-60
2021/06/29 05:21:09;;;;;;;4.65;4.03;;;;;;;;;;5095508;28;20064;-60
2021/06/29 05:23:35;;;;;;;4.13;3.53;;;;;;;;;;5093371;28;20028;-60
2021/06/29 05:26:04;;;;;;;7.80;4.45;;;;;;;;;;5094760;28;20020;-60
2021/06/29 05:28:30;;;;;;;4.72;4.30;;;;;;;;;;5095150;28;20024;-60
2021/06/29 05:30:56;;;;;;;6.53;5.28;;;;;;;;;;5095077;28;20039;-60
2021/06/29 05:33:22;;;;;;;6.28;5.43;;;;;;;;;;5095387;28;20024;-60
2021/06/29 05:35:48;;;;;;;4.90;4.50;;;;;;;;;;5095308;28;20024;-60
2021/06/29 05:38:14;;;;;;;5.18;4.70;;;;;;;;;;5094438;28;20414;-60
2021/06/29 05:40:40;;;;;;;5.45;4.93;;;;;;;;;;5093990;28;20074;-60
2021/06/29 05:43:06;;;;;;;6.22;5.63;;;;;;;;;;5094991;28;20028;-60
2021/06/29 05:45:32;;;;;;;5.53;5.03;;;;;;;;;;5094833;28;20031;-60
2021/06/29 05:47:59;;;;;;;6.18;5.57;;;;;;;;;;5094769;28;20028;-60
2021/06/29 05:50:28;;;;;;;6.97;5.32;;;;;;;;;;5094755;28;20136;-60
2021/06/29 05:52:54;;;;;;;6.63;5.47;;;;;;;;;;5093642;28;20020;-59
2021/06/29 05:55:20;;;;;;;6.07;5.47;;;;;;;;;;5094584;28;20054;-60
2021/06/29 05:57:46;;;;;;;5.97;5.38;;;;;;;;;;5094479;28;20036;-60
2021/06/29 06:00:14;;;;;;;6.22;5.68;;;;;;;;;;5095207;28;20107;-60
2021/06/29 06:02:40;;;;;;;5.13;4.60;;;;;;;;;;5093396;28;20024;-60
2021/06/29 06:05:07;;;;;;;4.28;3.88;;;;;;;;;;5093642;28;20035;-60
2021/06/29 06:07:33;;;;;;;4.22;3.83;;;;;;;;;;5094160;28;20081;-60
2021/06/29 06:09:59;;;;;;;5.55;4.43;;;;;;;;;;5093743;28;20479;-60
2021/06/29 06:12:26;;;;;;;5.47;4.32;;;;;;;;;;5095242;28;20447;-60
2021/06/29 06:14:55;;;;;;;5.63;4.60;;;;;;;;;;5094794;28;20046;-60
2021/06/29 06:17:21;;;;;;;5.30;4.80;;;;;;;;;;5076392;28;20032;-60
2021/06/29 06:19:47;;;;;;;5.30;4.43;;;;;;;;;;5094194;28;20032;-60
2021/06/29 06:22:13;;;;;;;4.47;4.07;;;;;;;;;;5093820;28;20028;-60
2021/06/29 06:24:39;;;;;;;4.25;3.85;;;;;;;;;;5094621;28;20028;-60
2021/06/29 06:27:08;;;;;;;4.43;3.63;;;;;;;;;;5094085;28;20035;-60
2021/06/29 06:29:34;;;;;;;5.00;3.85;;;;;;;;;;5094058;28;20362;-60
2021/06/29 06:32:00;;;;;;;6.90;3.78;;;;;;;;;;5094861;28;20024;-60
2021/06/29 06:34:26;;;;;;;3.80;3.38;;;;;;;;;;5094098;28;20369;-60
2021/06/29 06:36:53;;;;;;;4.32;3.50;;;;;;;;;;5093905;28;20361;-60
2021/06/29 06:39:19;;;;;;;7.43;3.50;;;;;;;;;;5094561;28;20035;-60
2021/06/29 06:41:45;;;;;;;4.15;3.05;;;;;;;;;;5092732;28;20119;-60
2021/06/29 06:44:11;;;;;;;4.53;3.55;;;;;;;;;;5093739;28;20058;-60
2021/06/29 06:46:37;;;;;;;3.65;2.47;;;;;;;;;;5092715;28;20028;-60
2021/06/29 06:49:03;;;;;;;3.90;3.33;;;;;;;;;;5093948;28;20024;-60
2021/06/29 06:51:29;;;;;;;3.60;2.95;;;;;;;;;;5094322;28;20103;-60
2021/06/29 06:53:55;;;;;;;2.50;2.20;;;;;;;;;;5092395;28;20024;-60
2021/06/29 06:56:21;;;;;;;2.97;2.33;;;;;;;;;;5092807;28;20028;-59
2021/06/29 06:58:47;;;;;;;6.30;2.50;;;;;;;;;;5093958;28;20401;-59
2021/06/29 07:01:14;;;;;;;3.13;2.42;;;;;;;;;;5093944;28;20426;-59
2021/06/29 07:03:40;;;;;;;2.30;1.90;;;;;;;;;;5094071;28;20081;-59
2021/06/29 07:06:07;;;;;;;3.60;2.30;;;;;;;;;;5094506;28;20020;-59
2021/06/29 07:08:33;;;;;;;3.47;1.85;;;;;;;;;;5093540;28;20107;-59
2021/06/29 07:11:00;;;;;;;2.97;2.05;;;;;;;;;;5093656;28;20111;-59
2021/06/29 07:13:26;;;;;;;2.95;1.90;;;;;;;;;;5093970;28;20024;-59
2021/06/29 07:15:52;;;;;;;2.65;1.95;;;;;;;;;;5093613;28;20415;-59
2021/06/29 07:18:18;;;;;;;2.40;1.50;;;;;;;;;;5093434;28;20154;-59
2021/06/29 07:20:44;;;;;;;3.13;1.98;;;;;;;;;;5093607;28;20036;-59
2021/06/29 07:23:11;;;;;;;5.13;1.92;;;;;;;;;;5094129;28;20408;-59
2021/06/29 07:25:37;;;;;;;2.40;1.73;;;;;;;;;;5093576;28;20077;-59
2021/06/29 07:28:03;;;;;;;2.33;1.13;;;;;;;;;;5091948;28;20032;-59
2021/06/29 07:30:29;;;;;;;2.53;2.05;;;;;;;;;;5092290;28;20097;-59
2021/06/29 07:32:58;;;;;;;3.38;1.40;;;;;;;;;;5094055;28;20052;-59
2021/06/29 07:35:24;;;;;;;3.85;1.50;;;;;;;;;;5092195;28;20028;-59
2021/06/29 07:37:51;;;;;;;1.55;1.05;;;;;;;;;;5093335;28;20020;-59
2021/06/29 07:40:17;;;;;;;1.90;1.17;;;;;;;;;;5093068;28;20499;-59
2021/06/29 07:42:43;;;;;;;2.20;1.30;;;;;;;;;;5093682;28;20026;-59
2021/06/29 07:45:10;;;;;;;2.20;1.45;;;;;;;;;;5093338;28;20044;-58
2021/06/29 07:47:36;;;;;;;1.52;0.80;;;;;;;;;;5093880;28;20039;-58
2021/06/29 07:50:04;;;;;;;3.50;1.20;;;;;;;;;;5096964;28;20058;-58
2021/06/29 07:52:30;;;;;;;1.83;1.27;;;;;;;;;;5096302;28;20156;-58
2021/06/29 07:54:56;;;;;;;2.95;1.00;;;;;;;;;;5097063;28;20024;-59
2021/06/29 07:57:22;;;;;;;2.03;1.13;;;;;;;;;;5095629;28;20069;-58
2021/06/29 07:59:48;;;;;;;1.60;0.80;;;;;;;;;;5095972;28;20116;-58
2021/06/29 08:02:14;;;;;;;2.00;1.08;;;;;;;;;;5096684;28;20020;-58
2021/06/29 08:04:41;;;;;;;2.03;0.95;;;;;;;;;;5096789;28;20024;-59
2021/06/29 08:07:07;;;;;;;1.77;1.00;;;;;;;;;;5097286;28;20473;-59
2021/06/29 08:09:36;;;;;;;1.50;0.90;;;;;;;;;;5096786;28;20048;-58
2021/06/29 08:12:02;;;;;;;1.58;1.00;;;;;;;;;;5096953;28;20027;-59
2021/06/29 08:14:28;;;;;;;2.45;1.10;;;;;;;;;;5096961;28;20055;-58
2021/06/29 08:16:54;;;;;;;1.48;0.82;;;;;;;;;;5096473;28;20036;-58
2021/06/29 08:19:20;;;;;;;3.03;1.73;;;;;;;;;;5096611;28;20031;-58
2021/06/29 08:21:46;;;;;;;1.90;1.00;;;;;;;;;;5097334;28;20020;-59
2021/06/29 08:24:12;;;;;;;2.30;1.13;;;;;;;;;;5096543;28;20028;-58
2021/06/29 08:26:38;;;;;;;1.17;0.75;;;;;;;;;;5096941;28;20020;-59
2021/06/29 08:29:04;;;;;;;1.75;1.10;;;;;;;;;;5096458;28;20027;-58
2021/06/29 08:31:31;;;;;;;2.53;1.38;;;;;;;;;;5095615;28;20028;-58
2021/06/29 08:33:57;;;;;;;2.72;1.55;;;;;;;;;;5096647;28;20373;-59
2021/06/29 08:36:23;;;;;;;1.63;0.98;;;;;;;;;;5096021;28;20465;-58
2021/06/29 08:38:49;;;;;;;3.60;1.02;;;;;;;;;;5094957;28;20032;-58
2021/06/29 08:41:16;;;;;;;1.80;1.02;;;;;;;;;;5096831;28;20365;-59
2021/06/29 08:43:43;;;;;;;2.03;1.27;;;;;;;;;;5095003;28;20078;-58
2021/06/29 08:46:09;;;;;;;2.38;1.40;;;;;;;;;;5096131;28;20024;-58
2021/06/29 08:48:35;;;;;;;2.03;1.10;;;;;;;;;;5094742;28;20028;-58
2021/06/29 08:51:06;;;;;;;2.15;1.33;;;;;;;;;;5095293;28;20473;-59
2021/06/29 08:53:33;;;;;;;2.28;1.45;;;;;;;;;;5096149;28;20020;-58
2021/06/29 08:56:00;;;;;;;1.83;1.20;;;;;;;;;;5095939;28;20111;-58
2021/06/29 08:58:28;;;;;;;2.10;1.25;;;;;;;;;;5095277;28;20028;-58
2021/06/29 09:00:54;;;;;;;1.85;1.20;;;;;;;;;;5094094;28;20055;-58
2021/06/29 09:03:20;;;;;;;2.08;1.20;;;;;;;;;;5095408;28;20031;-58
2021/06/29 09:05:47;;;;;;;1.95;1.38;;;;;;;;;;5095769;28;20103;-59
2021/06/29 09:08:16;;;;;;;3.92;1.48;;;;;;;;;;5095714;28;20024;-58
2021/06/29 09:10:43;;;;;;;2.35;1.27;;;;;;;;;;5096591;28;20048;-58
2021/06/29 09:13:12;;;;;;;1.88;1.20;;;;;;;;;;5095395;28;20051;-58
2021/06/29 09:15:43;;;;;;;2.58;1.50;;;;;;;;;;5095866;28;20024;-58
2021/06/29 09:18:10;;;;;;;1.90;1.08;;;;;;;;;;5095408;28;20077;-58
2021/06/29 09:20:38;;;;;;;2.22;1.00;;;;;;;;;;5095083;28;20470;-59
2021/06/29 09:23:18;;;;;;;1.45;0.82;;;;;;;;;;5095799;28;20032;-58
2021/06/29 09:25:47;;;;;;;2.50;1.17;;;;;;;;;;5095942;28;20024;-58
2021/06/29 09:28:14;;;;;;;1.17;0.63;;;;;;;;;;5094268;28;20343;-59
2021/06/29 09:30:46;;;;;;;1.92;0.90;;;;;;;;;;5095801;28;20369;-58
2021/06/29 09:33:14;;;;;;;3.47;1.23;;;;;;;;;;5094594;28;20070;-58
2021/06/29 09:35:43;;;;;;;1.67;0.93;;;;;;;;;;5095455;28;20099;-58
2021/06/29 09:38:12;;;;;;;1.55;1.00;;;;;;;;;;5095645;28;20463;-58
2021/06/29 09:40:38;;;;;;;1.50;0.90;;;;;;;;;;5095466;28;20055;-58
2021/06/29 09:43:06;;;;;;;1.50;0.90;;;;;;;;;;5095844;28;20451;-59
2021/06/29 09:45:41;;;;;;;2.03;1.08;;;;;;;;;;5095466;28;20016;-59
2021/06/29 09:48:10;;;;;;;1.80;0.95;;;;;;;;;;5094966;28;20023;-59
2021/06/29 09:50:38;;;;;;;3.45;1.23;;;;;;;;;;5094870;28;20078;-59
2021/06/29 09:53:16;;;;;;;1.73;0.88;;;;;;;;;;5095194;28;20028;-59
2021/06/29 09:55:46;;;;;;;1.88;1.00;;;;;;;;;;5095264;28;20023;-59
2021/06/29 09:58:12;;;;;;;;;;;;;;;;;;5094735;28;20493;-59
2021/06/29 10:00:42;;;;;;;3.03;0.98;;;;;;;;;;5094684;28;19908;-59
2021/06/29 10:03:28;;;;;;;2.42;0.98;;;;;;;;;;5095166;28;20369;-58
2021/06/29 10:05:54;;;;;;;1.92;1.30;;;;;;;;;;5094858;28;20248;-58
2021/06/29 10:08:28;;;;;;;1.63;0.82;;;;;;;;;;5094260;28;20030;-59
2021/06/29 10:11:18;;;;;;;1.75;0.98;;;;;;;;;;5094207;28;20054;-58
2021/06/29 10:13:52;;;;;;;1.83;1.08;;;;;;;;;;5065957;28;20032;-59
2021/06/29 10:16:21;;;;;;;1.42;0.70;;;;;;;;;;5094445;28;20024;-59
2021/06/29 10:18:51;;;;;;;1.33;0.70;;;;;;;;;;5094290;28;20035;-59
2021/06/29 10:21:22;;;;;;;2.03;1.15;;;;;;;;;;5093660;28;20036;-58
2021/06/29 10:23:49;;;;;;;4.60;1.17;;;;;;;;;;5095129;28;20052;-59
2021/06/29 10:26:15;;;;;;;2.33;0.80;;;;;;;;;;5094255;28;20032;-59
2021/06/29 10:28:42;;;;;;;3.33;1.08;;;;;;;;;;5094190;28;20028;-57
2021/06/29 10:31:09;;;;;;;1.45;1.00;;;;;;;;;;5094430;28;20095;-57
2021/06/29 10:33:35;;;;;;;1.70;1.10;;;;;;;;;;5094721;28;20521;-58
2021/06/29 10:36:03;;;;;;;3.10;1.27;;;;;;;;;;5093847;28;20020;-58
2021/06/29 10:38:29;;;;;;;2.22;1.20;;;;;;;;;;5094372;28;20019;-58
2021/06/29 10:40:55;;;;;;;2.03;1.10;;;;;;;;;;5093384;28;20038;-58
2021/06/29 10:43:21;;;;;;;1.98;1.38;;;;;;;;;;5094323;28;20043;-58
2021/06/29 10:45:51;;;;;;;1.80;1.10;;;;;;;;;;5094058;28;20028;-58
2021/06/29 10:48:18;;;;;;;1.42;1.00;;;;;;;;;;5094320;28;20370;-58
2021/06/29 10:50:45;;;;;;;2.08;1.02;;;;;;;;;;5092679;28;20085;-58
2021/06/29 10:53:31;;;;;;;2.15;1.10;;;;;;;;;;5094247;28;20028;-58
2021/06/29 10:55:57;;;;;;;2.80;1.45;;;;;;;;;;5094219;28;20401;-58
2021/06/29 10:58:35;;;;;;;2.45;1.38;;;;;;;;;;5094087;28;20027;-58
2021/06/29 11:01:20;;;;;;;2.08;1.08;;;;;;;;;;5094317;28;20080;-58
2021/06/29 11:03:46;;;;;;;2.20;1.20;;;;;;;;;;5093813;28;20059;-58
2021/06/29 11:06:12;;;;;;;3.55;1.58;;;;;;;;;;5093811;28;20016;-58
2021/06/29 11:08:48;;;;;;;2.70;1.60;;;;;;;;;;5093805;28;20031;-58
2021/06/29 11:11:14;;;;;;;2.88;1.70;;;;;;;;;;5094145;28;20519;-58
2021/06/29 11:13:40;;;;;;;2.00;1.20;;;;;;;;;;5093796;28;20028;-58
2021/06/29 11:16:06;;;;;;;2.88;1.35;;;;;;;;;;5093722;28;20020;-58
2021/06/29 11:18:35;;;;;;;2.00;1.20;;;;;;;;;;5093533;28;20028;-58
2021/06/29 11:21:04;;;;;;;2.08;1.20;;;;;;;;;;5094289;28;20170;-58
2021/06/29 11:23:32;;;;;;;3.08;1.30;;;;;;;;;;5096227;28;20488;-58
2021/06/29 11:26:15;;;;;;;1.60;1.13;;;;;;;;;;5097702;28;20450;-58
2021/06/29 11:28:45;;;;;;;1.90;1.25;;;;;;;;;;5098114;28;20062;-58
2021/06/29 11:31:20;;;;;;;2.28;1.27;;;;;;;;;;5098009;28;20103;-58
2021/06/29 11:33:49;;;;;;;1.90;1.42;;;;;;;;;;5096240;28;20025;-58
2021/06/29 11:36:25;;;;;;;2.30;1.20;;;;;;;;;;5096244;28;20138;-58
2021/06/29 11:38:52;;;;;;;3.20;1.50;;;;;;;;;;5098028;28;20377;-58
2021/06/29 11:41:31;;;;;;;1.85;1.17;;;;;;;;;;5097756;28;20059;-58
2021/06/29 11:44:06;;;;;;;2.42;1.55;;;;;;;;;;5097341;28;20031;-58
2021/06/29 11:46:47;;;;;;;2.15;1.40;;;;;;;;;;5097228;28;20030;-58
2021/06/29 11:49:15;;;;;;;1.83;0.98;;;;;;;;;;5097197;28;20564;-58
2021/06/29 11:51:52;;;;;;;2.58;1.15;;;;;;;;;;5097808;28;20027;-58
2021/06/29 11:54:27;;;;;;;3.35;1.38;;;;;;;;;;5097128;28;20020;-58
2021/06/29 11:56:54;;;;;;;1.63;0.90;;;;;;;;;;5097379;28;20020;-58
2021/06/29 11:59:30;;;;;;;2.78;1.38;;;;;;;;;;5097654;28;20032;-58
2021/06/29 12:02:17;;;;;;;1.98;1.00;;;;;;;;;;5097022;28;20024;-58
2021/06/29 12:04:53;;;;;;;2.08;1.10;;;;;;;;;;5097341;28;20020;-58
2021/06/29 12:07:28;;;;;;;1.83;1.02;;;;;;;;;;5097270;28;20028;-58
2021/06/29 12:09:54;;;;;;;1.50;0.80;;;;;;;;;;5097191;28;20048;-58
2021/06/29 12:12:25;;;;;;;1.33;0.70;;;;;;;;;;5097420;28;20026;-58
2021/06/29 12:15:17;;;;;;;1.50;0.95;;;;;;;;;;5096692;28;20020;-58
2021/06/29 12:17:49;;;;;;;1.48;0.77;;;;;;;;;;5094148;28;20047;-58
2021/06/29 12:20:16;;;;;;;2.78;1.60;;;;;;;;;;5097288;28;20028;-58
2021/06/29 12:22:46;;;;;;;1.13;0.70;;;;;;;;;;5096935;28;20369;-58
2021/06/29 12:25:17;;;;;;;1.95;0.90;;;;;;;;;;5096690;28;20066;-58
2021/06/29 12:28:03;;;;;;;1.90;0.98;;;;;;;;;;5096539;28;20024;-58
2021/06/29 12:30:29;;;;;;;1.33;0.82;;;;;;;;;;5096830;28;20412;-58
2021/06/29 12:32:55;;;;;;;1.85;1.30;;;;;;;;;;5096135;28;20020;-58
2021/06/29 12:35:22;;;;;;;1.73;1.13;;;;;;;;;;5096574;28;20503;-58
2021/06/29 12:37:51;;;;;;;2.92;1.40;;;;;;;;;;5096369;28;20032;-58
2021/06/29 12:40:17;;;;;;;2.15;0.95;;;;;;;;;;5096278;28;20412;-58
2021/06/29 12:42:43;;;;;;;2.65;1.50;;;;;;;;;;5096781;28;20047;-58
2021/06/29 12:45:10;;;;;;;2.60;1.10;;;;;;;;;;5096486;28;20020;-58
2021/06/29 12:47:37;;;;;;;2.35;1.38;;;;;;;;;;5096470;28;20454;-58
2021/06/29 12:50:04;;;;;;;2.00;1.17;;;;;;;;;;5096964;28;20024;-58
2021/06/29 12:52:30;;;;;;;1.60;1.13;;;;;;;;;;5095947;28;20028;-58
2021/06/29 12:55:12;;;;;;;2.13;1.48;;;;;;;;;;5095857;28;20411;-58
2021/06/29 12:57:39;;;;;;;2.40;1.73;;;;;;;;;;5095802;28;20032;-58
2021/06/29 13:00:14;;;;;;;2.42;1.42;;;;;;;;;;5096104;28;20378;-59
2021/06/29 13:02:44;;;;;;;1.85;0.65;;;;;;;;;;5095828;28;20462;-59
2021/06/29 13:05:23;;;;;;;1.50;0.55;;;;;;;;;;5096159;28;20107;-59
2021/06/29 13:07:49;;;;;;;0.75;0.30;;;;;;;;;;5095777;28;20081;-59
2021/06/29 13:10:15;;;;;;;2.95;0.60;;;;;;;;;;5095951;28;20059;-58
2021/06/29 13:12:42;;;;;;;1.63;0.30;;;;;;;;;;5095696;28;20101;-59
2021/06/29 13:15:09;;;;;;;5.82;0.75;;;;;;;;;;5095632;28;20373;-59
2021/06/29 13:17:45;;;;;;;0.30;0.22;;;;;;;;;;5095424;28;20056;-58
2021/06/29 13:20:23;;;;;;;1.73;0.45;;;;;;;;;;5095789;28;20020;-59
2021/06/29 13:22:53;;;;;;;3.90;0.77;;;;;;;;;;5095502;28;20024;-58
2021/06/29 13:25:39;;;;;;;1.17;0.45;;;;;;;;;;5096019;28;20028;-58
2021/06/29 13:28:11;;;;;;;2.53;0.60;;;;;;;;;;5096141;28;20020;-58
2021/06/29 13:30:38;;;;;;;1.08;0.45;;;;;;;;;;5095154;28;20026;-57
2021/06/29 13:33:04;;;;;;;3.25;0.70;;;;;;;;;;5095069;28;20025;-58
2021/06/29 13:35:30;;;;;;;1.30;0.57;;;;;;;;;;5095204;28;20016;-58
2021/06/29 13:37:59;;;;;;;0.60;0.30;;;;;;;;;;5095060;28;20031;-58
2021/06/29 13:40:30;;;;;;;1.17;0.60;;;;;;;;;;5094931;28;20477;-58
2021/06/29 13:43:17;;;;;;;1.48;0.30;;;;;;;;;;5095140;28;20024;-59
2021/06/29 13:45:45;;;;;;;1.00;0.45;;;;;;;;;;5094434;28;20023;-58
2021/06/29 13:48:11;;;;;;;1.80;0.40;;;;;;;;;;5095603;28;20020;-58
2021/06/29 13:50:45;;;;;;;0.43;0.20;;;;;;;;;;5095168;28;20069;-58
2021/06/29 13:53:12;;;;;;;1.13;0.30;;;;;;;;;;5095212;28;20047;-58
2021/06/29 13:55:55;;;;;;;1.17;0.30;;;;;;;;;;5094765;28;20111;-58
2021/06/29 13:58:22;;;;;;;1.83;0.63;;;;;;;;;;5094719;28;20027;-59
2021/06/29 14:01:08;;;;;;;1.25;0.57;;;;;;;;;;5094588;28;20416;-59
2021/06/29 14:03:35;;;;;;;1.70;0.60;;;;;;;;;;5094701;28;20028;-59
2021/06/29 14:06:16;;;;;;;0.70;0.28;;;;;;;;;;5095222;28;20024;-59
2021/06/29 14:08:44;;;;;;;2.17;0.75;;;;;;;;;;5094932;28;20124;-58
2021/06/29 14:11:13;;;;;;;1.45;0.70;;;;;;;;;;5094763;28;20400;-59
2021/06/29 14:13:52;;;;;;;1.08;0.50;;;;;;;;;;5094877;28;20029;-58
2021/06/29 14:16:19;;;;;;;0.93;0.38;;;;;;;;;;5095002;28;20342;-59
2021/06/29 14:18:46;;;;;;;4.18;0.60;;;;;;;;;;5094343;28;20114;-59
2021/06/29 14:21:14;;;;;;;1.33;0.75;;;;;;;;;;5094730;28;20475;-59
2021/06/29 14:23:41;;;;;;;0.47;0.20;;;;;;;;;;5094524;28;20020;-59
2021/06/29 14:26:07;;;;;;;1.00;0.40;;;;;;;;;;5094245;28;20032;-59
2021/06/29 14:28:34;;;;;;;1.58;0.73;;;;;;;;;;5094255;28;20036;-59
2021/06/29 14:31:00;;;;;;;1.00;0.47;;;;;;;;;;5094287;28;20076;-57
2021/06/29 14:33:26;;;;;;;2.22;0.28;;;;;;;;;;5094635;28;20149;-57
2021/06/29 14:35:52;;;;;;;1.15;0.47;;;;;;;;;;5094423;28;20020;-57
2021/06/29 14:38:22;;;;;;;0.95;0.50;;;;;;;;;;5094351;28;20353;-57
2021/06/29 14:40:48;;;;;;;1.65;0.52;;;;;;;;;;5092812;28;20323;-57
2021/06/29 14:43:14;;;;;;;1.30;0.52;;;;;;;;;;5092695;28;20028;-57
2021/06/29 14:45:41;;;;;;;1.23;0.57;;;;;;;;;;5093911;28;20038;-58
2021/06/29 14:48:07;;;;;;;1.05;0.52;;;;;;;;;;5093960;28;20035;-57